Time;durP1;ratioP1;P1;durP2;ratioP2;P2;SDS_P1;SDS_P2;PMS_P1;PMS_P2;Temp;Humidity;BMP_temperature;BMP_pressure;BME280_temperature;BME280_humidity;BME280_pressure;Samples;Min_cycle;Max_cycle;Signal;HPM_P1;HPM_P2
2023/01/29 00:01:08;;;;;;;;;8.50;7.50;;;;;20.66;36.75;103008.44;5055884;28;45254;-68
2023/01/29 00:03:34;;;;;;;;;8.75;5.50;;;;;20.66;36.73;103008.44;5055772;28;45488;-68
2023/01/29 00:06:05;;;;;;;;;6.25;6.25;;;;;20.66;36.69;103003.13;5055433;28;45297;-69
2023/01/29 00:08:32;;;;;;;;;8.25;6.75;;;;;20.65;36.66;102993.50;5054722;28;45448;-68
2023/01/29 00:11:05;;;;;;;;;5.75;5.75;;;;;20.65;36.62;102991.72;5055813;28;45332;-68
2023/01/29 00:13:30;;;;;;;;;9.00;7.75;;;;;20.62;36.48;102986.66;5055699;28;45360;-68
2023/01/29 00:15:57;;;;;;;;;6.00;6.00;;;;;20.65;36.79;102991.72;5055435;28;46089;-68
2023/01/29 00:18:22;;;;;;;;;6.00;5.00;;;;;20.65;36.87;102996.16;5055564;28;45356;-68
2023/01/29 00:20:48;;;;;;;;;6.50;5.00;;;;;20.61;36.83;102983.16;5055553;28;45381;-68
2023/01/29 00:23:14;;;;;;;;;5.00;5.00;;;;;20.66;36.37;102992.56;5055674;28;45280;-68
2023/01/29 00:25:40;;;;;;;;;8.50;7.00;;;;;20.65;36.33;102990.84;5054775;28;46260;-69
2023/01/29 00:28:05;;;;;;;;;5.00;4.50;;;;;20.65;36.68;102990.84;5055210;28;45238;-68
2023/01/29 00:30:30;;;;;;;;;6.00;5.75;;;;;20.63;36.91;102983.88;5055663;28;45713;-68
2023/01/29 00:32:56;;;;;;;;;4.75;4.75;;;;;20.61;36.65;102985.81;5055441;28;45403;-69
2023/01/29 00:35:21;;;;;;;;;8.50;7.00;;;;;20.65;36.42;102993.50;5054997;28;46199;-68
2023/01/29 00:37:47;;;;;;;;;7.50;6.75;;;;;20.65;36.52;102996.16;5055427;28;45408;-68
2023/01/29 00:40:12;;;;;;;;;7.50;6.25;;;;;20.61;36.58;102991.09;5054937;28;45856;-68
2023/01/29 00:45:21;;;;;;;;;5.50;5.50;;;;;20.51;36.52;102971.59;5054810;28;45537;-68
2023/01/29 00:47:47;;;;;;;;;7.25;6.25;;;;;20.65;36.36;103007.56;5054877;28;45634;-68
2023/01/29 00:50:12;;;;;;;;;7.25;5.75;;;;;20.65;36.40;103012.88;5053989;28;45342;-68
2023/01/29 00:52:39;;;;;;;;;7.25;6.00;;;;;20.64;36.64;103008.53;5055281;28;45464;-68
2023/01/29 00:55:06;;;;;;;;;3.25;3.25;;;;;20.53;36.45;102987.38;5056483;28;45922;-68
2023/01/29 00:57:33;;;;;;;;;7.50;7.50;;;;;20.65;36.64;103006.72;5058223;28;45420;-68
2023/01/29 00:59:58;;;;;;;;;5.25;5.25;;;;;20.63;36.88;103005.03;5058550;28;45223;-68
2023/01/29 01:05:12;;;;;;;;;6.25;6.25;;;;;20.64;36.42;102995.31;5058268;28;45349;-68
2023/01/29 01:07:39;;;;;;;;;5.75;5.75;;;;;20.63;36.38;102993.63;5065799;28;45385;-69
2023/01/29 01:10:20;;;;;;;;;5.25;5.25;;;;;20.63;36.33;102993.63;5077846;28;45410;-68
2023/01/29 01:12:47;;;;;;;;;6.50;5.50;;;;;20.62;36.81;102986.66;5077535;28;45409;-68
2023/01/29 01:15:13;;;;;;;;;5.75;5.00;;;;;20.63;36.92;102993.63;5077634;28;46083;-69
2023/01/29 01:17:38;;;;;;;;;6.00;6.00;;;;;20.63;36.92;102989.16;5078248;28;45374;-69
2023/01/29 01:20:04;;;;;;;;;5.75;4.00;;;;;20.63;37.26;102989.16;5074169;28;45288;-69
2023/01/29 01:22:30;;;;;;;;;6.75;4.50;;;;;20.65;36.97;102996.16;5057985;28;45501;-69
2023/01/29 01:24:56;;;;;;;;;6.25;5.25;;;;;20.58;37.34;102980.75;5057164;28;46289;-69
2023/01/29 01:27:21;;;;;;;;;7.00;5.00;;;;;20.65;37.08;102986.41;5056379;28;45528;-69
2023/01/29 01:29:47;;;;;;;;;6.00;5.50;;;;;20.66;37.10;102984.63;5057785;28;45462;-69
2023/01/29 01:32:13;;;;;;;;;7.00;6.00;;;;;20.59;36.87;102971.84;5056739;28;45314;-69
2023/01/29 01:34:38;;;;;;;;;6.50;4.00;;;;;20.61;37.17;102969.09;5057873;28;47239;-69
2023/01/29 01:37:04;;;;;;;;;6.25;6.25;;;;;20.66;37.20;102984.63;5057861;28;45391;-69
2023/01/29 01:39:29;;;;;;;;;6.75;6.25;;;;;20.66;36.94;102976.69;5057652;28;45361;-69
2023/01/29 01:41:54;;;;;;;;;8.00;6.75;;;;;20.65;36.85;102978.47;5057959;28;45350;-69
2023/01/29 01:44:54;;;;;;;;;7.25;5.75;;;;;20.65;36.98;102978.47;5057601;28;45919;-69
2023/01/29 01:47:34;;;;;;;;;8.25;7.00;;;;;20.58;36.81;102969.34;5057541;28;45407;-69
2023/01/29 01:50:07;;;;;;;;;5.50;5.50;;;;;20.59;36.97;102971.84;5057978;28;45400;-69
2023/01/29 01:52:37;;;;;;;;;6.25;6.25;;;;;20.64;36.80;102968.84;5057597;28;45370;-69
2023/01/29 01:55:04;;;;;;;;;6.50;6.00;;;;;20.57;36.88;102965.84;5057713;28;45538;-70
2023/01/29 01:57:31;;;;;;;;;7.50;6.25;;;;;20.63;37.10;102968.00;5057438;28;45491;-69
2023/01/29 02:00:10;;;;;;;;;6.50;5.75;;;;;20.63;36.91;102970.66;5057594;28;45343;-70
2023/01/29 02:10:57;;;;;;;;;7.00;6.00;;;;;20.62;36.81;102954.91;5057520;28;45308;-69
2023/01/29 02:13:23;;;;;;;;;8.25;8.00;;;;;20.62;36.93;102952.25;5057473;28;45386;-69
2023/01/29 02:15:48;;;;;;;;;9.75;8.75;;;;;20.62;37.01;102949.63;5057234;28;45451;-69
2023/01/29 02:18:16;;;;;;;;;8.50;7.00;;;;;20.63;37.09;102953.97;5057117;28;45158;-69
2023/01/29 02:20:48;;;;;;;;;8.00;7.00;;;;;20.62;37.01;102954.91;5057453;28;45369;-70
2023/01/29 02:23:31;;;;;;;;;8.00;8.00;;;;;20.62;36.83;102946.97;5056927;28;45310;-69
2023/01/29 02:26:28;;;;;;;;;6.00;6.00;;;;;20.55;36.75;102938.69;5056909;28;47152;-69
2023/01/29 02:29:29;;;;;;;;;3.50;3.50;;;;;20.62;36.67;102950.47;5057085;28;45198;-69
2023/01/29 02:32:08;;;;;;;;;10.00;7.50;;;;;20.61;37.04;102954.06;5057115;28;45467;-69
2023/01/29 02:37:31;;;;;;;;;10.25;6.00;;;;;20.61;37.00;102938.19;5056450;28;45364;-69
2023/01/29 02:40:11;;;;;;;;;7.00;7.00;;;;;20.63;37.08;102948.66;5056843;28;45351;-69
2023/01/29 02:42:45;;;;;;;;;8.00;8.00;;;;;20.62;36.79;102949.63;5038878;28;45491;-69
2023/01/29 02:45:32;;;;;;;;;7.00;7.00;;;;;20.62;36.99;102946.97;5056832;28;45468;-69
2023/01/29 02:48:00;;;;;;;;;7.00;7.00;;;;;20.62;36.63;102944.31;5056589;28;45401;-69
2023/01/29 02:50:48;;;;;;;;;5.75;5.75;;;;;20.62;36.64;102942.53;5038660;28;45385;-69
2023/01/29 02:53:40;;;;;;;;;7.00;5.00;;;;;20.61;37.16;102946.13;5056819;28;45451;-69
2023/01/29 02:56:26;;;;;;;;;5.75;5.75;;;;;20.61;36.79;102946.13;5056409;28;45554;-70
2023/01/29 02:58:59;;;;;;;;;8.25;5.25;;;;;20.61;37.10;102940.84;5056468;28;46115;-69
2023/01/29 03:01:24;;;;;;;;;9.75;7.00;;;;;20.61;36.80;102948.78;5055265;28;46043;-69
2023/01/29 03:03:53;;;;;;;;;8.00;8.00;;;;;20.57;36.73;102949.13;5056623;28;45308;-70
2023/01/29 03:06:31;;;;;;;;;5.50;5.50;;;;;20.62;36.57;102957.56;5056260;28;45340;-69
2023/01/29 03:09:05;;;;;;;;;8.25;8.25;;;;;20.62;36.89;102953.13;5056284;28;45420;-69
2023/01/29 03:11:41;;;;;;;;;7.75;7.00;;;;;20.61;36.66;102950.56;5056368;28;45491;-69
2023/01/29 03:14:12;;;;;;;;;8.00;7.00;;;;;20.58;36.63;102951.66;5056465;28;45401;-69
2023/01/29 03:16:50;;;;;;;;;7.25;7.25;;;;;20.62;37.14;102939.03;5056273;28;45504;-69
2023/01/29 03:19:17;;;;;;;;;8.00;8.00;;;;;20.61;36.87;102940.84;5056047;28;46005;-69
2023/01/29 03:21:53;;;;;;;;;10.00;8.25;;;;;20.62;36.54;102949.63;5056007;28;45333;-69
2023/01/29 03:32:50;;;;;;;;;7.75;7.00;;;;;20.60;36.93;102943.63;5056157;28;45373;-69
2023/01/29 03:35:32;;;;;;;;;8.00;8.00;;;;;20.60;36.90;102943.63;5055635;28;45357;-69
2023/01/29 03:37:58;;;;;;;;;8.75;6.25;;;;;20.60;36.62;102943.63;5056059;28;45565;-69
2023/01/29 03:40:25;;;;;;;;;8.00;6.00;;;;;20.59;36.95;102934.84;5055864;28;46983;-69
2023/01/29 03:43:01;;;;;;;;;6.50;6.50;;;;;20.60;37.11;102927.75;5037880;28;45467;-69
2023/01/29 03:45:37;;;;;;;;;5.50;5.50;;;;;20.57;36.83;102917.41;5055775;28;45389;-70
2023/01/29 03:48:21;;;;;;;;;10.00;8.00;;;;;20.59;36.73;102923.41;5054720;28;45447;-69
2023/01/29 03:51:10;;;;;;;;;7.00;6.75;;;;;20.58;37.03;102927.84;5055417;28;46199;-69
2023/01/29 03:53:45;;;;;;;;;8.25;5.75;;;;;20.58;36.78;102927.84;5055646;28;45296;-69
2023/01/29 03:56:37;;;;;;;;;6.50;6.50;;;;;20.24;36.86;102869.66;5055822;28;45345;-69
2023/01/29 03:59:11;;;;;;;;;7.00;7.00;;;;;20.58;36.72;102943.72;5055832;28;45264;-69
2023/01/29 04:01:47;;;;;;;;;7.50;6.50;;;;;20.59;36.72;102955.13;5055606;28;47136;-69
2023/01/29 04:04:33;;;;;;;;;9.75;8.25;;;;;20.59;36.85;102949.84;5055128;28;45483;-69
2023/01/29 04:07:23;;;;;;;;;7.00;7.00;;;;;20.48;37.00;102927.72;5055672;28;45280;-70
2023/01/29 04:10:11;;;;;;;;;9.75;8.75;;;;;20.58;36.65;102949.00;5055601;28;45412;-69
2023/01/29 04:12:42;;;;;;;;;6.50;6.25;;;;;20.58;36.80;102941.06;5037424;28;46170;-69
2023/01/29 04:15:14;;;;;;;;;7.75;7.75;;;;;20.58;36.79;102938.41;5055627;28;45376;-69
2023/01/29 04:17:42;;;;;;;;;6.75;6.75;;;;;20.55;36.79;102925.47;5055107;28;45187;-69
2023/01/29 04:20:10;;;;;;;;;6.25;6.25;;;;;20.59;36.92;102940.13;5055556;28;45365;-69
2023/01/29 04:22:38;;;;;;;;;9.00;7.25;;;;;20.59;36.71;102940.13;5055436;28;46418;-69
2023/01/29 04:25:07;;;;;;;;;8.00;8.00;;;;;20.59;36.82;102933.97;5055281;28;45480;-69
2023/01/29 04:27:59;;;;;;;;;9.50;7.75;;;;;20.59;37.00;102934.84;5055422;28;45371;-69
2023/01/29 04:30:55;;;;;;;;;8.00;8.00;;;;;20.61;36.49;102937.34;4995446;28;45424;-69
2023/01/29 04:33:55;;;;;;;;;8.50;7.25;;;;;20.60;36.70;102930.38;4996315;28;47204;-69
2023/01/29 04:36:26;;;;;;;;;9.75;8.00;;;;;20.61;36.84;102929.41;4996389;28;45398;-69
2023/01/29 04:39:24;;;;;;;;;10.25;9.00;;;;;20.60;36.59;102933.03;4996767;28;45546;-69
2023/01/29 04:42:00;;;;;;;;;10.50;6.75;;;;;20.53;36.88;102922.09;4996095;28;45275;-69
2023/01/29 04:44:41;;;;;;;;;10.00;9.00;;;;;20.49;36.77;102918.84;4996490;28;46046;-69
2023/01/29 04:47:25;;;;;;;;;9.00;8.50;;;;;20.59;36.74;102934.84;4995935;28;45540;-69
2023/01/29 04:50:29;;;;;;;;;10.50;9.25;;;;;20.60;36.81;102933.03;4996718;28;45435;-69
2023/01/29 04:53:27;;;;;;;;;7.25;7.25;;;;;20.60;36.37;102933.88;4918985;28;45402;-69
2023/01/29 04:56:02;;;;;;;;;11.25;9.50;;;;;20.44;36.58;102907.78;4918561;28;46978;-69
2023/01/29 04:58:31;;;;;;;;;7.75;7.50;;;;;20.59;36.67;102929.53;4918635;28;45490;-69
2023/01/29 05:00:59;;;;;;;;;8.50;8.50;;;;;20.58;36.78;102933.13;4918782;28;45384;-70
2023/01/29 05:03:27;;;;;;;;;8.00;7.00;;;;;20.58;36.88;102930.50;4918269;28;45509;-69
2023/01/29 05:05:55;;;;;;;;;8.75;8.25;;;;;20.59;36.82;102920.75;4918371;28;45444;-69
2023/01/29 05:08:23;;;;;;;;;14.50;8.75;;;;;20.58;36.56;102922.56;4974115;28;45451;-69
2023/01/29 05:10:51;;;;;;;;;6.50;6.50;;;;;20.59;36.89;102923.41;4976707;28;45444;-69
2023/01/29 05:13:19;;;;;;;;;7.25;6.75;;;;;20.59;36.59;102918.13;4960599;28;45531;-69
2023/01/29 05:16:00;;;;;;;;;9.50;8.00;;;;;20.50;36.87;102903.81;4975322;28;46446;-69
2023/01/29 05:18:27;;;;;;;;;9.75;9.50;;;;;20.59;36.50;102918.13;4976414;28;45374;-69
2023/01/29 05:20:56;;;;;;;;;6.75;6.75;;;;;20.58;36.78;102917.25;4976490;28;45931;-69
2023/01/29 05:23:22;;;;;;;;;7.75;7.00;;;;;20.57;36.86;102920.03;4999126;28;45430;-69
2023/01/29 05:25:49;;;;;;;;;10.25;8.75;;;;;20.57;36.80;102922.69;5037795;28;45502;-69
2023/01/29 05:28:18;;;;;;;;;6.75;6.75;;;;;20.58;36.51;102916.44;5037801;28;45381;-69
2023/01/29 05:30:51;;;;;;;;;11.00;8.00;;;;;20.57;36.79;102922.69;5037594;28;45575;-69
2023/01/29 05:33:23;;;;;;;;;7.00;7.00;;;;;20.55;36.98;102920.19;5038181;28;45303;-69
2023/01/29 05:35:49;;;;;;;;;9.75;7.75;;;;;20.56;36.92;102921.00;5037366;28;46873;-69
2023/01/29 05:38:16;;;;;;;;;10.25;8.25;;;;;20.56;36.62;102921.84;5037744;28;45337;-69
2023/01/29 05:40:41;;;;;;;;;10.25;9.00;;;;;20.56;36.57;102921.00;5037357;28;45382;-69
2023/01/29 05:43:23;;;;;;;;;11.00;9.25;;;;;20.56;36.88;102924.50;5037774;28;45374;-69
2023/01/29 05:45:57;;;;;;;;;8.75;8.50;;;;;20.56;36.64;102923.63;5041534;28;47320;-70
2023/01/29 05:48:24;;;;;;;;;9.00;8.00;;;;;20.56;36.51;102921.00;5057497;28;45392;-69
2023/01/29 05:50:50;;;;;;;;;6.75;6.75;;;;;20.51;36.43;102914.28;5057861;28;45281;-69
2023/01/29 05:53:15;;;;;;;;;8.00;7.50;;;;;20.56;36.65;102918.34;5057815;28;45372;-69
2023/01/29 05:55:47;;;;;;;;;8.25;8.25;;;;;20.56;36.82;102916.56;5056142;28;46225;-69
2023/01/29 05:58:12;;;;;;;;;9.25;8.00;;;;;20.58;36.57;102919.09;5057550;28;45503;-69
2023/01/29 06:00:38;;;;;;;;;10.00;9.00;;;;;20.43;36.84;102884.13;5057186;28;45441;-69
2023/01/29 06:03:03;;;;;;;;;12.00;9.00;;;;;20.54;36.74;102907.91;5057607;28;45431;-69
2023/01/29 06:05:29;;;;;;;;;8.00;8.00;;;;;20.53;36.59;102905.38;5057259;28;48317;-69
2023/01/29 06:07:54;;;;;;;;;8.50;8.50;;;;;20.58;36.47;102908.53;5057420;28;45230;-69
2023/01/29 06:10:19;;;;;;;;;10.25;7.50;;;;;20.52;36.68;102909.81;5057510;28;45330;-69
2023/01/29 06:12:45;;;;;;;;;11.75;10.75;;;;;20.58;36.68;102919.09;5057440;28;45336;-69
2023/01/29 06:15:11;;;;;;;;;7.75;7.75;;;;;20.50;36.66;102915.25;5057143;28;45986;-69
2023/01/29 06:17:37;;;;;;;;;7.25;7.25;;;;;20.57;36.80;102918.25;5057246;28;45311;-69
2023/01/29 06:20:03;;;;;;;;;8.25;8.00;;;;;20.56;36.70;102916.56;5057498;28;45346;-69
2023/01/29 06:22:29;;;;;;;;;9.75;9.75;;;;;20.59;36.40;102915.47;5057379;28;45542;-69
2023/01/29 06:24:54;;;;;;;;;8.50;8.25;;;;;20.56;36.59;102910.41;5056951;28;45982;-69
2023/01/29 06:27:19;;;;;;;;;10.00;7.00;;;;;20.58;36.88;102917.25;5057148;28;45376;-69
2023/01/29 06:29:45;;;;;;;;;6.50;6.00;;;;;20.58;36.94;102913.81;5056910;28;45326;-69
2023/01/29 06:32:10;;;;;;;;;10.00;9.00;;;;;20.56;36.74;102905.13;5038983;28;45476;-69
2023/01/29 06:34:35;;;;;;;;;11.00;9.00;;;;;20.54;36.66;102910.53;5056711;28;47116;-69
2023/01/29 06:37:01;;;;;;;;;8.00;8.00;;;;;20.57;36.58;102912.09;5056737;28;45284;-69
2023/01/29 06:39:27;;;;;;;;;11.50;9.25;;;;;20.45;36.69;102896.25;5057081;28;45356;-69
2023/01/29 06:41:52;;;;;;;;;9.75;8.00;;;;;20.56;36.80;102919.19;5057219;28;45568;-69
2023/01/29 06:44:17;;;;;;;;;9.50;9.00;;;;;20.56;36.76;102908.63;5056303;28;45557;-69
2023/01/29 06:46:43;;;;;;;;;8.25;7.00;;;;;20.57;36.44;102912.09;5056508;28;45437;-69
2023/01/29 06:49:08;;;;;;;;;8.75;8.75;;;;;20.56;36.71;102911.25;5056817;28;45341;-69
2023/01/29 06:51:33;;;;;;;;;10.25;8.50;;;;;20.27;36.63;102866.81;5056214;28;45317;-69
2023/01/29 06:53:59;;;;;;;;;7.00;7.00;;;;;20.56;36.97;102918.34;5056215;28;45275;-70
2023/01/29 06:56:24;;;;;;;;;10.25;9.25;;;;;20.55;36.77;102909.59;5056738;28;45281;-69
2023/01/29 06:58:49;;;;;;;;;8.50;8.00;;;;;20.55;36.53;102908.75;5056382;28;45284;-69
2023/01/29 07:01:15;;;;;;;;;9.00;8.75;;;;;20.55;36.95;102911.38;5056780;28;45271;-69
2023/01/29 07:03:41;;;;;;;;;7.25;7.25;;;;;20.55;36.85;102908.75;5056461;28;45416;-69
2023/01/29 07:06:07;;;;;;;;;9.25;8.75;;;;;20.54;36.60;102909.69;5056302;28;45751;-69
2023/01/29 07:08:37;;;;;;;;;9.00;8.00;;;;;20.54;36.57;102894.69;5055806;28;45506;-69
2023/01/29 07:11:03;;;;;;;;;9.00;9.00;;;;;20.54;36.98;102909.69;5056756;28;45440;-69
2023/01/29 07:13:28;;;;;;;;;9.00;9.00;;;;;20.52;36.77;102907.19;5055996;28;46321;-69
2023/01/29 07:15:58;;;;;;;;;8.00;8.00;;;;;20.51;36.73;102906.34;5056210;28;45269;-69
2023/01/29 07:18:23;;;;;;;;;9.75;9.75;;;;;20.54;36.38;102912.34;5038393;28;45221;-69
2023/01/29 07:20:48;;;;;;;;;11.00;9.75;;;;;20.53;36.79;102913.31;5056412;28;45381;-69
2023/01/29 07:23:14;;;;;;;;;8.50;8.00;;;;;20.55;36.79;102908.75;5056413;28;46073;-69
2023/01/29 07:25:40;;;;;;;;;13.00;9.75;;;;;20.50;36.36;102903.81;5056080;28;45372;-69
2023/01/29 07:28:06;;;;;;;;;11.50;8.50;;;;;20.51;36.59;102902.84;5037782;28;45312;-69
2023/01/29 07:30:32;;;;;;;;;14.00;10.75;;;;;20.54;36.50;102905.25;5056125;28;45442;-69
2023/01/29 07:33:08;;;;;;;;;13.50;10.75;;;;;20.55;36.54;102903.47;5056018;28;46961;-69
2023/01/29 07:35:42;;;;;;;;;11.25;10.00;;;;;20.54;36.59;102915.84;5055901;28;45599;-69
2023/01/29 07:38:09;;;;;;;;;10.75;8.75;;;;;20.21;36.39;102859.31;5056352;28;45613;-69
2023/01/29 07:40:34;;;;;;;;;10.50;8.50;;;;;20.54;36.51;102910.53;5055679;28;45539;-69
2023/01/29 07:43:03;;;;;;;;;10.25;9.50;;;;;20.52;36.52;102907.19;5055797;28;45305;-69
2023/01/29 07:45:29;;;;;;;;;9.00;9.00;;;;;20.55;36.58;102914.88;5055690;28;45452;-69
2023/01/29 07:47:55;;;;;;;;;9.50;9.50;;;;;20.55;36.48;102914.88;5056040;28;45620;-69
2023/01/29 07:50:21;;;;;;;;;9.00;8.75;;;;;20.56;36.58;102910.41;5055899;28;45386;-69
2023/01/29 07:52:47;;;;;;;;;10.00;9.50;;;;;20.57;36.36;102914.75;5055574;28;46200;-69
2023/01/29 07:55:12;;;;;;;;;14.50;10.50;;;;;20.54;36.65;102913.19;5055417;28;45447;-69
2023/01/29 07:57:37;;;;;;;;;11.75;9.00;;;;;20.57;36.26;102915.59;5056239;28;45399;-69
2023/01/29 08:00:03;;;;;;;;;10.25;9.00;;;;;20.56;36.34;102916.56;5055738;28;45522;-69
2023/01/29 08:02:28;;;;;;;;;8.75;8.75;;;;;20.55;36.28;102909.59;5037739;28;46009;-69
2023/01/29 08:04:53;;;;;;;;;12.75;9.00;;;;;20.57;36.75;102910.31;5055391;28;47410;-69
2023/01/29 08:07:19;;;;;;;;;14.00;9.25;;;;;20.57;36.48;102912.97;5055631;28;45416;-69
2023/01/29 08:09:44;;;;;;;;;11.00;10.00;;;;;20.48;36.45;102898.63;5055365;28;45302;-69
2023/01/29 08:12:09;;;;;;;;;8.50;8.00;;;;;20.57;36.73;102907.66;5055542;28;47095;-69
2023/01/29 08:14:35;;;;;;;;;12.00;9.50;;;;;20.56;36.40;102910.41;5055573;28;45430;-69
2023/01/29 08:17:00;;;;;;;;;8.75;8.75;;;;;20.50;36.42;102898.53;5055806;28;45232;-69
2023/01/29 08:19:25;;;;;;;;;10.00;9.00;;;;;20.55;36.58;102901.66;5055535;28;45328;-69
2023/01/29 08:21:51;;;;;;;;;9.00;9.00;;;;;20.56;36.45;102911.25;5055348;28;47573;-69
2023/01/29 08:24:16;;;;;;;;;10.25;9.00;;;;;20.55;36.48;102904.31;5055024;28;45388;-69
2023/01/29 08:26:41;;;;;;;;;11.00;9.25;;;;;20.55;36.52;102906.94;5055394;28;45232;-69
2023/01/29 08:29:07;;;;;;;;;9.50;9.50;;;;;20.54;36.63;102905.25;5055542;28;45275;-69
2023/01/29 08:31:32;;;;;;;;;8.25;8.25;;;;;20.55;36.58;102900.81;5055171;28;46192;-69
2023/01/29 08:33:58;;;;;;;;;10.25;8.00;;;;;20.53;36.52;102897.47;5055422;28;45279;-68
2023/01/29 08:36:23;;;;;;;;;8.00;8.00;;;;;20.55;36.50;102904.31;5055328;28;45324;-69
2023/01/29 08:38:49;;;;;;;;;12.00;10.00;;;;;20.20;36.33;102844.41;5054859;28;45381;-69
2023/01/29 08:41:14;;;;;;;;;11.75;11.00;;;;;20.53;36.47;102898.31;5037086;28;47328;-69
2023/01/29 08:43:40;;;;;;;;;11.25;9.75;;;;;20.54;36.46;102899.13;5055341;28;45292;-69
2023/01/29 08:46:06;;;;;;;;;9.25;8.75;;;;;20.54;36.79;102897.31;5055128;28;45341;-69
2023/01/29 08:48:32;;;;;;;;;29.25;25.75;;;;;20.35;31.42;102884.72;5055075;28;45381;-69
2023/01/29 08:50:58;;;;;;;;;31.25;26.00;;;;;20.05;33.03;102886.91;5054701;28;46298;-68
2023/01/29 08:53:24;;;;;;;;;24.25;18.50;;;;;19.95;34.18;102884.97;5054322;28;45284;-69
2023/01/29 08:55:50;;;;;;;;;16.25;15.25;;;;;19.87;34.94;102871.50;5054294;28;45286;-69
2023/01/29 08:58:16;;;;;;;;;16.25;15.50;;;;;20.03;35.36;102899.41;5036750;28;45426;-69
2023/01/29 09:00:41;;;;;;;;;18.25;14.75;;;;;20.07;35.36;102904.31;5054880;28;45630;-68
2023/01/29 09:03:06;;;;;;;;;19.00;15.50;;;;;20.07;35.66;102901.69;5054999;28;45500;-69
2023/01/29 09:05:33;;;;;;;;;16.75;13.00;;;;;20.13;35.75;102916.28;5054840;28;45510;-69
2023/01/29 09:07:59;;;;;;;;;20.00;14.25;;;;;20.16;35.70;102912.56;5054668;28;45407;-69
2023/01/29 09:10:24;;;;;;;;;14.00;12.50;;;;;20.20;35.89;102919.28;5054761;28;46202;-70
2023/01/29 09:12:50;;;;;;;;;13.75;13.00;;;;;20.22;35.90;102920.00;5054766;28;45800;-69
2023/01/29 09:15:15;;;;;;;;;15.00;12.25;;;;;20.26;35.84;102912.69;5055456;28;45413;-69
2023/01/29 09:17:41;;;;;;;;;16.75;16.75;;;;;20.25;36.06;102911.00;5058227;28;45567;-69
2023/01/29 09:20:08;;;;;;;;;12.75;12.50;;;;;20.29;36.10;102915.09;5058169;28;45480;-69
2023/01/29 09:22:34;;;;;;;;;14.25;11.25;;;;;20.31;35.91;102913.19;5057792;28;45685;-69
2023/01/29 09:24:59;;;;;;;;;12.25;11.25;;;;;20.26;35.95;102908.25;5058174;28;45371;-69
2023/01/29 09:27:24;;;;;;;;;13.75;12.00;;;;;20.36;36.29;102918.94;5058143;28;45390;-69
2023/01/29 09:29:50;;;;;;;;;15.25;13.00;;;;;20.33;36.25;102902.47;5058129;28;46189;-69
2023/01/29 09:32:15;;;;;;;;;14.50;12.75;;;;;20.41;35.79;102921.22;5057896;28;45355;-69
2023/01/29 09:34:41;;;;;;;;;14.75;14.50;;;;;20.42;36.34;102917.63;5058072;28;45188;-69
2023/01/29 09:37:06;;;;;;;;;11.50;11.50;;;;;20.44;36.03;102925.44;5057619;28;45337;-69
2023/01/29 09:39:31;;;;;;;;;9.75;9.50;;;;;20.45;36.36;102916.56;5057826;28;45350;-69
2023/01/29 09:42:06;;;;;;;;;12.25;12.00;;;;;20.48;36.21;102921.63;5057878;28;45264;-69
2023/01/29 09:44:57;;;;;;;;;13.50;12.25;;;;;20.50;36.31;102922.34;5058010;28;45370;-68
2023/01/29 09:47:25;;;;;;;;;10.50;10.50;;;;;20.51;36.11;102916.91;5057491;28;45696;-69
2023/01/29 09:50:01;;;;;;;;;13.00;12.50;;;;;20.53;36.43;102915.97;5057589;28;45331;-69
2023/01/29 09:52:29;;;;;;;;;14.00;12.25;;;;;20.54;36.09;102915.84;5057272;28;45344;-70
2023/01/29 09:55:03;;;;;;;;;10.50;9.50;;;;;20.55;36.22;102922.81;5057585;28;45443;-69
2023/01/29 09:57:45;;;;;;;;;12.50;10.75;;;;;20.57;36.20;102920.88;5057505;28;45573;-70
2023/01/29 10:00:23;;;;;;;;;14.00;11.25;;;;;20.57;36.43;102920.88;5057384;28;46123;-69
2023/01/29 10:03:06;;;;;;;;;9.50;9.50;;;;;20.60;36.55;102920.66;5057456;28;45397;-69
2023/01/29 10:06:13;;;;;;;;;11.00;9.00;;;;;20.53;36.36;102911.53;5057234;28;45380;-70
2023/01/29 10:08:52;;;;;;;;;12.00;11.00;;;;;20.55;36.59;102903.47;5057636;28;45487;-70
2023/01/29 10:11:49;;;;;;;;;10.50;10.50;;;;;20.62;36.53;102925.81;5057340;28;47195;-69
2023/01/29 10:14:25;;;;;;;;;9.00;9.00;;;;;20.63;36.51;102917.75;5057270;28;45431;-69
2023/01/29 10:17:24;;;;;;;;;12.25;12.00;;;;;20.61;36.33;102909.09;5057248;28;45297;-69
2023/01/29 10:20:24;;;;;;;;;13.00;10.50;;;;;20.65;36.66;102916.81;5057293;28;45297;-69
2023/01/29 10:23:14;;;;;;;;;11.75;11.00;;;;;20.67;36.26;102922.81;5057008;28;45452;-69
2023/01/29 10:25:43;;;;;;;;;12.00;8.25;;;;;20.57;36.21;102907.66;5056991;28;45381;-69
2023/01/29 10:28:19;;;;;;;;;1.00;0.00;;;;;20.68;36.39;102921.84;5057121;28;45289;-69
2023/01/29 10:30:55;;;;;;;;;11.50;10.00;;;;;20.65;36.74;102916.81;5057239;28;45484;-69
2023/01/29 10:33:41;;;;;;;;;8.75;8.50;;;;;20.69;36.43;102920.88;5056873;28;45399;-69
2023/01/29 10:36:16;;;;;;;;;9.50;9.50;;;;;20.71;36.44;102919.78;5056301;28;45286;-69
2023/01/29 10:38:49;;;;;;;;;12.00;11.00;;;;;20.72;36.78;102924.13;5057033;28;45297;-69
2023/01/29 10:41:18;;;;;;;;;10.75;9.75;;;;;20.72;36.65;102924.13;5038786;28;45432;-69
2023/01/29 10:44:03;;;;;;;;;7.75;7.75;;;;;20.72;36.77;102918.84;5056769;28;46313;-69
2023/01/29 10:46:35;;;;;;;;;9.75;9.00;;;;;20.72;36.83;102913.56;5056405;28;45443;-69
2023/01/29 10:49:03;;;;;;;;;10.00;8.50;;;;;20.73;36.51;102920.53;5056831;28;45278;-69
2023/01/29 10:51:56;;;;;;;;;5.50;5.50;;;;;20.72;36.72;102905.63;5056745;28;45317;-69
2023/01/29 10:54:32;;;;;;;;;9.00;9.00;;;;;20.73;36.55;102904.66;5056751;28;45344;-69
2023/01/29 10:57:15;;;;;;;;;11.00;11.00;;;;;20.75;36.87;102893.94;5056568;28;45274;-69
2023/01/29 10:59:56;;;;;;;;;7.75;7.75;;;;;20.74;36.48;102887.81;5056712;28;45304;-69
2023/01/29 11:02:21;;;;;;;;;10.25;10.25;;;;;20.69;36.68;102871.47;5066437;28;45448;-69
2023/01/29 11:04:47;;;;;;;;;9.25;9.00;;;;;20.74;36.80;102879.88;5076273;28;45841;-69
2023/01/29 11:07:15;;;;;;;;;9.00;9.00;;;;;20.75;36.48;102880.72;5076778;28;45367;-69
2023/01/29 11:10:07;;;;;;;;;11.00;11.00;;;;;20.73;36.66;102867.63;5054835;28;45627;-68
2023/01/29 11:12:35;;;;;;;;;10.25;9.75;;;;;20.76;36.85;102876.28;5045913;28;45397;-69
2023/01/29 11:15:12;;;;;;;;;13.50;11.00;;;;;20.76;36.57;102869.19;5056416;28;46993;-69
2023/01/29 11:17:37;;;;;;;;;13.25;12.00;;;;;20.75;36.76;102867.50;5056201;28;45323;-69
2023/01/29 11:20:23;;;;;;;;;12.25;8.50;;;;;20.70;36.82;102861.72;5055544;28;45280;-69
2023/01/29 11:22:53;;;;;;;;;11.25;10.00;;;;;20.76;36.83;102858.63;5042469;28;45331;-68
2023/01/29 11:25:19;;;;;;;;;9.00;8.50;;;;;20.78;36.78;102863.78;5045190;28;46961;-69
2023/01/29 11:27:48;;;;;;;;;11.25;9.00;;;;;20.77;36.68;102856.78;5056087;28;45547;-70
2023/01/29 11:30:20;;;;;;;;;11.00;8.25;;;;;20.74;36.84;102842.84;5055945;28;45450;-70
2023/01/29 11:32:59;;;;;;;;;9.25;8.00;;;;;20.78;36.61;102851.38;5068710;28;45511;-70
2023/01/29 11:35:25;;;;;;;;;12.25;12.00;;;;;20.79;36.50;102844.28;5048151;28;46493;-70
2023/01/29 11:37:50;;;;;;;;;8.75;8.75;;;;;20.80;37.01;102845.97;5052032;28;45503;-69
2023/01/29 11:40:18;;;;;;;;;8.50;7.50;;;;;20.79;36.39;102845.13;5055952;28;45334;-70
2023/01/29 11:42:49;;;;;;;;;7.75;7.75;;;;;20.80;36.70;102840.66;5055670;28;45292;-70
2023/01/29 11:45:28;;;;;;;;;11.50;9.75;;;;;20.81;36.91;102829.97;5055752;28;46093;-70
2023/01/29 11:47:55;;;;;;;;;11.75;10.00;;;;;20.73;36.81;102820.03;5053611;28;45482;-70
2023/01/29 11:50:26;;;;;;;;;9.25;9.25;;;;;20.81;36.50;102827.34;5056261;28;45465;-70
2023/01/29 11:52:52;;;;;;;;;9.50;9.50;;;;;20.80;36.89;102822.16;5057590;28;45565;-70
2023/01/29 11:55:32;;;;;;;;;8.50;6.25;;;;;20.82;37.19;102830.81;5048465;28;45360;-70
2023/01/29 11:58:17;;;;;;;;;10.25;8.00;;;;;20.81;37.04;102824.69;5051157;28;45488;-69
2023/01/29 12:00:47;;;;;;;;;6.00;6.00;;;;;20.82;37.06;102820.22;5054554;28;45423;-70
2023/01/29 12:03:18;;;;;;;;;11.75;9.50;;;;;20.82;36.92;102823.72;5055321;28;45364;-70
2023/01/29 12:05:58;;;;;;;;;11.75;10.75;;;;;20.82;37.03;102813.13;5054436;28;45507;-70